Missouri River (Missouri), Napolean (06894650)

StateMissouriLatestUnknown (68300 cfs)
RiverMissouri RiverRatingObservedEstimated
Updated2024-06-14 22:00 (23 minutes ago)Flood - The river is flooding. Obstacles can be treacherous or deadly. The river should be avoided at this stage for casual trips and definitely for the inexperienced. Trips should be attempted only with protective gear and equipment.Flood(none)(none)
Discharge68300 cfs (median: 84900 cfs)High - The river is high and potentially dangerous, especially for the young and / or inexperienced. Normal stream obstacles are sometimes difficult to navigate. Extended distances can be attempted, but canoe travel may not be advisable.High(none)(none)
Height11.24 feetGood - Conditions are ideal for a canoe or kayak. Boats typically will drag on fewer than one-quarter of riffles, if at all, and portages are unnecessary or rare. Normal float lengths can be attempted without a problem.Good(none)(none)
TrendFalling (falling over 24 hours)Low - River is low but can still be floated. Some riffles are okay but most come with significant dragging and might need a portage. Float lengths should be reduced to accommodate low flow, dragging, and portages.Low(none)(none)
USGSExternal icon USGS Site (External icon Duck Duck Go Maps)Poor - River is too low to float comfortably. Most or all riffles will drag or must be portaged and some obstacles (such as slick shelf rock) cause undue problems. Avoid the river at this stage for casual paddling trips.Poor(none)(none)

Trending Data

Plot Image

Trips for Missouri River (Missouri), Napolean (06894650)

DateStartEndDistanceConditionDischargeHeightFishingDetails

A total of 0 rows are displayed.

Condition Descriptions

Fishing Conditions

Fish Species

Notes

Classic Trip List

The classic River Trips application is still available for use. It is updated with the new system using a data retrofit. It is no longer maintained. The original River Trips application is no longer updated (as of 1 Dec 2016) but can be checked for errors or for the condition of the data before it was converted to the new system.

Gauge Data Table

ObservationHeightDischargeMaximum
Discharge
Minimum
Discharge
Mean
Discharge
P05P10P20P25P50
(Median)
P75P80P90P95
2024-06-14 22:00 11.24 68300 208000 (2019) 40900 (2023) 103000 40900 57100 63800 84900 148000 189000 208000
2024-06-14 21:00 11.28 68600 208000 (2019) 40900 (2023) 103000 40900 57100 63800 84900 148000 189000 208000
2024-06-14 20:00 11.27 68500 208000 (2019) 40900 (2023) 103000 40900 57100 63800 84900 148000 189000 208000
2024-06-14 19:00 11.27 68500 208000 (2019) 40900 (2023) 103000 40900 57100 63800 84900 148000 189000 208000
2024-06-14 18:00 11.24 68300 208000 (2019) 40900 (2023) 103000 40900 57100 63800 84900 148000 189000 208000
2024-06-14 17:00 11.26 68400 208000 (2019) 40900 (2023) 103000 40900 57100 63800 84900 148000 189000 208000
2024-06-14 16:00 11.26 68400 208000 (2019) 40900 (2023) 103000 40900 57100 63800 84900 148000 189000 208000
2024-06-14 15:00 11.24 68300 208000 (2019) 40900 (2023) 103000 40900 57100 63800 84900 148000 189000 208000
2024-06-14 14:00 11.25 68400 208000 (2019) 40900 (2023) 103000 40900 57100 63800 84900 148000 189000 208000
2024-06-14 13:00 11.29 68700 208000 (2019) 40900 (2023) 103000 40900 57100 63800 84900 148000 189000 208000
2024-06-14 12:00 11.30 68700 208000 (2019) 40900 (2023) 103000 40900 57100 63800 84900 148000 189000 208000
2024-06-14 11:00 11.31 68800 208000 (2019) 40900 (2023) 103000 40900 57100 63800 84900 148000 189000 208000
2024-06-14 10:00 11.32 68900 208000 (2019) 40900 (2023) 103000 40900 57100 63800 84900 148000 189000 208000
2024-06-14 09:00 11.30 68700 208000 (2019) 40900 (2023) 103000 40900 57100 63800 84900 148000 189000 208000
2024-06-14 08:00 11.32 68900 208000 (2019) 40900 (2023) 103000 40900 57100 63800 84900 148000 189000 208000
2024-06-14 07:00 11.33 68900 208000 (2019) 40900 (2023) 103000 40900 57100 63800 84900 148000 189000 208000
2024-06-14 06:00 11.33 68900 208000 (2019) 40900 (2023) 103000 40900 57100 63800 84900 148000 189000 208000
2024-06-14 05:00 11.34 69000 208000 (2019) 40900 (2023) 103000 40900 57100 63800 84900 148000 189000 208000
2024-06-14 04:00 11.33 68900 208000 (2019) 40900 (2023) 103000 40900 57100 63800 84900 148000 189000 208000
2024-06-14 03:00 11.35 69100 208000 (2019) 40900 (2023) 103000 40900 57100 63800 84900 148000 189000 208000
2024-06-14 02:00 11.35 69100 208000 (2019) 40900 (2023) 103000 40900 57100 63800 84900 148000 189000 208000
2024-06-14 01:00 11.35 69100 208000 (2019) 40900 (2023) 103000 40900 57100 63800 84900 148000 189000 208000
2024-06-14 00:00 11.38 69300 208000 (2019) 40900 (2023) 103000 40900 57100 63800 84900 148000 189000 208000
2024-06-13 23:00 11.33 68900 208000 (2019) 40900 (2023) 103000 40900 57100 63800 84900 148000 189000 208000
2024-06-13 22:00 11.33 68900 217000 (2019) 39000 (2023) 104000 39000 57600 63100 84500 149000 189000 217000
2024-06-13 21:00 11.35 69100 217000 (2019) 39000 (2023) 104000 39000 57600 63100 84500 149000 189000 217000
2024-06-13 20:00 11.32 68900 217000 (2019) 39000 (2023) 104000 39000 57600 63100 84500 149000 189000 217000
2024-06-13 19:00 11.35 69100 217000 (2019) 39000 (2023) 104000 39000 57600 63100 84500 149000 189000 217000
2024-06-13 18:00 11.34 69000 217000 (2019) 39000 (2023) 104000 39000 57600 63100 84500 149000 189000 217000
2024-06-13 17:00 11.36 69200 217000 (2019) 39000 (2023) 104000 39000 57600 63100 84500 149000 189000 217000
2024-06-13 16:00 11.36 69200 217000 (2019) 39000 (2023) 104000 39000 57600 63100 84500 149000 189000 217000
2024-06-13 15:00 11.36 69200 217000 (2019) 39000 (2023) 104000 39000 57600 63100 84500 149000 189000 217000
2024-06-13 14:00 11.39 69400 217000 (2019) 39000 (2023) 104000 39000 57600 63100 84500 149000 189000 217000
2024-06-13 13:00 11.38 69300 217000 (2019) 39000 (2023) 104000 39000 57600 63100 84500 149000 189000 217000
2024-06-13 12:00 11.40 69400 217000 (2019) 39000 (2023) 104000 39000 57600 63100 84500 149000 189000 217000
2024-06-13 11:00 11.41 69500 217000 (2019) 39000 (2023) 104000 39000 57600 63100 84500 149000 189000 217000
2024-06-13 10:00 11.42 69600 217000 (2019) 39000 (2023) 104000 39000 57600 63100 84500 149000 189000 217000
2024-06-13 09:00 11.41 69500 217000 (2019) 39000 (2023) 104000 39000 57600 63100 84500 149000 189000 217000
2024-06-13 08:00 11.44 69700 217000 (2019) 39000 (2023) 104000 39000 57600 63100 84500 149000 189000 217000
2024-06-13 07:00 11.43 69700 217000 (2019) 39000 (2023) 104000 39000 57600 63100 84500 149000 189000 217000
2024-06-13 06:00 11.43 69700 217000 (2019) 39000 (2023) 104000 39000 57600 63100 84500 149000 189000 217000
2024-06-13 05:00 11.43 69700 217000 (2019) 39000 (2023) 104000 39000 57600 63100 84500 149000 189000 217000
2024-06-13 04:00 11.42 69600 217000 (2019) 39000 (2023) 104000 39000 57600 63100 84500 149000 189000 217000
2024-06-13 03:00 11.43 69700 217000 (2019) 39000 (2023) 104000 39000 57600 63100 84500 149000 189000 217000
2024-06-13 02:00 11.42 69600 217000 (2019) 39000 (2023) 104000 39000 57600 63100 84500 149000 189000 217000
2024-06-13 01:00 11.41 69500 217000 (2019) 39000 (2023) 104000 39000 57600 63100 84500 149000 189000 217000
2024-06-13 00:00 11.41 69500 217000 (2019) 39000 (2023) 104000 39000 57600 63100 84500 149000 189000 217000
2024-06-12 23:00 11.43 69700 217000 (2019) 39000 (2023) 104000 39000 57600 63100 84500 149000 189000 217000
2024-06-12 22:00 11.43 69700 226000 (2019) 38600 (2023) 98800 38600 60100 65800 86100 119000 127000 226000
2024-06-12 21:00 11.43 69700 226000 (2019) 38600 (2023) 98800 38600 60100 65800 86100 119000 127000 226000
2024-06-12 20:00 11.42 69600 226000 (2019) 38600 (2023) 98800 38600 60100 65800 86100 119000 127000 226000
2024-06-12 19:00 11.42 69600 226000 (2019) 38600 (2023) 98800 38600 60100 65800 86100 119000 127000 226000
2024-06-12 18:00 11.42 69600 226000 (2019) 38600 (2023) 98800 38600 60100 65800 86100 119000 127000 226000
2024-06-12 17:00 11.41 69500 226000 (2019) 38600 (2023) 98800 38600 60100 65800 86100 119000 127000 226000
2024-06-12 16:00 11.44 69700 226000 (2019) 38600 (2023) 98800 38600 60100 65800 86100 119000 127000 226000
2024-06-12 15:00 11.44 69700 226000 (2019) 38600 (2023) 98800 38600 60100 65800 86100 119000 127000 226000
2024-06-12 14:00 11.44 69700 226000 (2019) 38600 (2023) 98800 38600 60100 65800 86100 119000 127000 226000
2024-06-12 13:00 11.47 69900 226000 (2019) 38600 (2023) 98800 38600 60100 65800 86100 119000 127000 226000
2024-06-12 12:00 11.47 69900 226000 (2019) 38600 (2023) 98800 38600 60100 65800 86100 119000 127000 226000
2024-06-12 11:00 11.49 70100 226000 (2019) 38600 (2023) 98800 38600 60100 65800 86100 119000 127000 226000
2024-06-12 10:00 11.50 70200 226000 (2019) 38600 (2023) 98800 38600 60100 65800 86100 119000 127000 226000
2024-06-12 09:00 11.51 70200 226000 (2019) 38600 (2023) 98800 38600 60100 65800 86100 119000 127000 226000
2024-06-12 08:00 11.53 70400 226000 (2019) 38600 (2023) 98800 38600 60100 65800 86100 119000 127000 226000
2024-06-12 07:00 11.54 70500 226000 (2019) 38600 (2023) 98800 38600 60100 65800 86100 119000 127000 226000
2024-06-12 06:00 11.56 70600 226000 (2019) 38600 (2023) 98800 38600 60100 65800 86100 119000 127000 226000
2024-06-12 05:00 11.60 70900 226000 (2019) 38600 (2023) 98800 38600 60100 65800 86100 119000 127000 226000
2024-06-12 04:00 11.62 71000 226000 (2019) 38600 (2023) 98800 38600 60100 65800 86100 119000 127000 226000
2024-06-12 03:00 11.64 71200 226000 (2019) 38600 (2023) 98800 38600 60100 65800 86100 119000 127000 226000
2024-06-12 02:00 11.64 71200 226000 (2019) 38600 (2023) 98800 38600 60100 65800 86100 119000 127000 226000
2024-06-12 01:00 11.69 71500 226000 (2019) 38600 (2023) 98800 38600 60100 65800 86100 119000 127000 226000
2024-06-12 00:00 11.72 71800 226000 (2019) 38600 (2023) 98800 38600 60100 65800 86100 119000 127000 226000
2024-06-11 23:00 11.75 72000 226000 (2019) 38600 (2023) 98800 38600 60100 65800 86100 119000 127000 226000
2024-06-11 22:00 11.78 72200 234000 (2019) 38800 (2023) 97500 38800 56200 64800 82700 112000 114000 234000
2024-06-11 21:00 11.82 72500 234000 (2019) 38800 (2023) 97500 38800 56200 64800 82700 112000 114000 234000
2024-06-11 20:00 11.88 72900 234000 (2019) 38800 (2023) 97500 38800 56200 64800 82700 112000 114000 234000
2024-06-11 19:00 11.91 73200 234000 (2019) 38800 (2023) 97500 38800 56200 64800 82700 112000 114000 234000
2024-06-11 18:00 11.95 73500 234000 (2019) 38800 (2023) 97500 38800 56200 64800 82700 112000 114000 234000
2024-06-11 17:00 12.00 73800 234000 (2019) 38800 (2023) 97500 38800 56200 64800 82700 112000 114000 234000
2024-06-11 16:00 12.05 74200 234000 (2019) 38800 (2023) 97500 38800 56200 64800 82700 112000 114000 234000
2024-06-11 15:00 12.10 74600 234000 (2019) 38800 (2023) 97500 38800 56200 64800 82700 112000 114000 234000
2024-06-11 14:00 12.13 74800 234000 (2019) 38800 (2023) 97500 38800 56200 64800 82700 112000 114000 234000
2024-06-11 13:00 12.18 75200 234000 (2019) 38800 (2023) 97500 38800 56200 64800 82700 112000 114000 234000
2024-06-11 12:00 12.24 75600 234000 (2019) 38800 (2023) 97500 38800 56200 64800 82700 112000 114000 234000
2024-06-11 11:00 12.27 75900 234000 (2019) 38800 (2023) 97500 38800 56200 64800 82700 112000 114000 234000
2024-06-11 10:00 12.33 76300 234000 (2019) 38800 (2023) 97500 38800 56200 64800 82700 112000 114000 234000
2024-06-11 09:00 12.36 76600 234000 (2019) 38800 (2023) 97500 38800 56200 64800 82700 112000 114000 234000
2024-06-11 08:00 12.40 76900 234000 (2019) 38800 (2023) 97500 38800 56200 64800 82700 112000 114000 234000
2024-06-11 07:00 12.44 77200 234000 (2019) 38800 (2023) 97500 38800 56200 64800 82700 112000 114000 234000
2024-06-11 06:00 12.48 77500 234000 (2019) 38800 (2023) 97500 38800 56200 64800 82700 112000 114000 234000
2024-06-11 05:00 12.55 78000 234000 (2019) 38800 (2023) 97500 38800 56200 64800 82700 112000 114000 234000
2024-06-11 04:00 12.58 78300 234000 (2019) 38800 (2023) 97500 38800 56200 64800 82700 112000 114000 234000
2024-06-11 03:00 12.59 78300 234000 (2019) 38800 (2023) 97500 38800 56200 64800 82700 112000 114000 234000
2024-06-11 02:00 12.61 78500 234000 (2019) 38800 (2023) 97500 38800 56200 64800 82700 112000 114000 234000
2024-06-11 01:00 12.66 78900 234000 (2019) 38800 (2023) 97500 38800 56200 64800 82700 112000 114000 234000
2024-06-11 00:00 12.67 79000 234000 (2019) 38800 (2023) 97500 38800 56200 64800 82700 112000 114000 234000
2024-06-10 23:00 12.69 79100 234000 (2019) 38800 (2023) 97500 38800 56200 64800 82700 112000 114000 234000
2024-06-10 22:00 12.70 79200 241000 (2019) 38700 (2023) 100000 38700 57200 64800 89500 113000 116000 241000
2024-06-10 21:00 12.70 79200 241000 (2019) 38700 (2023) 100000 38700 57200 64800 89500 113000 116000 241000
2024-06-10 20:00 12.72 79300 241000 (2019) 38700 (2023) 100000 38700 57200 64800 89500 113000 116000 241000
2024-06-10 19:00 12.72 79300 241000 (2019) 38700 (2023) 100000 38700 57200 64800 89500 113000 116000 241000
2024-06-10 18:00 12.75 79600 241000 (2019) 38700 (2023) 100000 38700 57200 64800 89500 113000 116000 241000
2024-06-10 17:00 12.74 79500 241000 (2019) 38700 (2023) 100000 38700 57200 64800 89500 113000 116000 241000
2024-06-10 16:00 12.75 79600 241000 (2019) 38700 (2023) 100000 38700 57200 64800 89500 113000 116000 241000
2024-06-10 15:00 12.79 79900 241000 (2019) 38700 (2023) 100000 38700 57200 64800 89500 113000 116000 241000
2024-06-10 14:00 12.81 80100 241000 (2019) 38700 (2023) 100000 38700 57200 64800 89500 113000 116000 241000
2024-06-10 13:00 12.81 80100 241000 (2019) 38700 (2023) 100000 38700 57200 64800 89500 113000 116000 241000
2024-06-10 12:00 12.83 80200 241000 (2019) 38700 (2023) 100000 38700 57200 64800 89500 113000 116000 241000
2024-06-10 11:00 12.83 80200 241000 (2019) 38700 (2023) 100000 38700 57200 64800 89500 113000 116000 241000
2024-06-10 10:00 12.83 80200 241000 (2019) 38700 (2023) 100000 38700 57200 64800 89500 113000 116000 241000
2024-06-10 09:00 12.85 80400 241000 (2019) 38700 (2023) 100000 38700 57200 64800 89500 113000 116000 241000
2024-06-10 08:00 12.86 80400 241000 (2019) 38700 (2023) 100000 38700 57200 64800 89500 113000 116000 241000
2024-06-10 07:00 12.86 80400 241000 (2019) 38700 (2023) 100000 38700 57200 64800 89500 113000 116000 241000
2024-06-10 06:00 12.85 80400 241000 (2019) 38700 (2023) 100000 38700 57200 64800 89500 113000 116000 241000
2024-06-10 05:00 12.86 80400 241000 (2019) 38700 (2023) 100000 38700 57200 64800 89500 113000 116000 241000
2024-06-10 04:00 12.90 80800 241000 (2019) 38700 (2023) 100000 38700 57200 64800 89500 113000 116000 241000
2024-06-10 03:00 12.88 80600 241000 (2019) 38700 (2023) 100000 38700 57200 64800 89500 113000 116000 241000
2024-06-10 02:00 12.90 80800 241000 (2019) 38700 (2023) 100000 38700 57200 64800 89500 113000 116000 241000
2024-06-10 01:00 12.86 80400 241000 (2019) 38700 (2023) 100000 38700 57200 64800 89500 113000 116000 241000
2024-06-10 00:00 12.83 80200 241000 (2019) 38700 (2023) 100000 38700 57200 64800 89500 113000 116000 241000
2024-06-09 23:00 12.84 80300 241000 (2019) 38700 (2023) 100000 38700 57200 64800 89500 113000 116000 241000
2024-06-09 22:00 12.84 80300 249000 (2019) 39300 (2023) 101000 39300 59000 66000 83000 120000 121000 249000
2024-06-09 21:00 12.82 80100 249000 (2019) 39300 (2023) 101000 39300 59000 66000 83000 120000 121000 249000
2024-06-09 20:00 12.83 80200 249000 (2019) 39300 (2023) 101000 39300 59000 66000 83000 120000 121000 249000
2024-06-09 19:00 12.84 80300 249000 (2019) 39300 (2023) 101000 39300 59000 66000 83000 120000 121000 249000
2024-06-09 18:00 12.85 80400 249000 (2019) 39300 (2023) 101000 39300 59000 66000 83000 120000 121000 249000
2024-06-09 17:00 12.84 80300 249000 (2019) 39300 (2023) 101000 39300 59000 66000 83000 120000 121000 249000
2024-06-09 16:00 12.84 80300 249000 (2019) 39300 (2023) 101000 39300 59000 66000 83000 120000 121000 249000
2024-06-09 15:00 12.87 80500 249000 (2019) 39300 (2023) 101000 39300 59000 66000 83000 120000 121000 249000
2024-06-09 14:00 12.87 80500 249000 (2019) 39300 (2023) 101000 39300 59000 66000 83000 120000 121000 249000
2024-06-09 13:00 12.90 80800 249000 (2019) 39300 (2023) 101000 39300 59000 66000 83000 120000 121000 249000
2024-06-09 12:00 12.92 80900 249000 (2019) 39300 (2023) 101000 39300 59000 66000 83000 120000 121000 249000
2024-06-09 11:00 12.90 80800 249000 (2019) 39300 (2023) 101000 39300 59000 66000 83000 120000 121000 249000
2024-06-09 10:00 12.94 81100 249000 (2019) 39300 (2023) 101000 39300 59000 66000 83000 120000 121000 249000
2024-06-09 09:00 12.95 81200 249000 (2019) 39300 (2023) 101000 39300 59000 66000 83000 120000 121000 249000
2024-06-09 08:00 13.02 81700 249000 (2019) 39300 (2023) 101000 39300 59000 66000 83000 120000 121000 249000
2024-06-09 07:00 13.05 82000 249000 (2019) 39300 (2023) 101000 39300 59000 66000 83000 120000 121000 249000
2024-06-09 06:00 13.08 82200 249000 (2019) 39300 (2023) 101000 39300 59000 66000 83000 120000 121000 249000
2024-06-09 05:00 13.13 82600 249000 (2019) 39300 (2023) 101000 39300 59000 66000 83000 120000 121000 249000
2024-06-09 04:00 13.19 83100 249000 (2019) 39300 (2023) 101000 39300 59000 66000 83000 120000 121000 249000
2024-06-09 03:00 13.25 83600 249000 (2019) 39300 (2023) 101000 39300 59000 66000 83000 120000 121000 249000
2024-06-09 02:00 13.32 84100 249000 (2019) 39300 (2023) 101000 39300 59000 66000 83000 120000 121000 249000
2024-06-09 01:00 13.37 84600 249000 (2019) 39300 (2023) 101000 39300 59000 66000 83000 120000 121000 249000
2024-06-09 00:00 13.46 85300 249000 (2019) 39300 (2023) 101000 39300 59000 66000 83000 120000 121000 249000
2024-06-08 23:00 13.51 85700 249000 (2019) 39300 (2023) 101000 39300 59000 66000 83000 120000 121000 249000
2024-06-08 22:00 13.56 86100 255000 (2019) 39700 (2023) 107000 39700 61800 67000 86400 141000 160000 255000
2024-06-08 21:00 13.63 86700 255000 (2019) 39700 (2023) 107000 39700 61800 67000 86400 141000 160000 255000
2024-06-08 20:00 13.68 87100 255000 (2019) 39700 (2023) 107000 39700 61800 67000 86400 141000 160000 255000
2024-06-08 19:00 13.73 87500 255000 (2019) 39700 (2023) 107000 39700 61800 67000 86400 141000 160000 255000
2024-06-08 18:00 13.79 88000 255000 (2019) 39700 (2023) 107000 39700 61800 67000 86400 141000 160000 255000
2024-06-08 17:00 13.80 88100 255000 (2019) 39700 (2023) 107000 39700 61800 67000 86400 141000 160000 255000
2024-06-08 16:00 13.83 88400 255000 (2019) 39700 (2023) 107000 39700 61800 67000 86400 141000 160000 255000
2024-06-08 15:00 13.84 88500 255000 (2019) 39700 (2023) 107000 39700 61800 67000 86400 141000 160000 255000
2024-06-08 14:00 13.83 88400 255000 (2019) 39700 (2023) 107000 39700 61800 67000 86400 141000 160000 255000
2024-06-08 13:00 13.80 88100 255000 (2019) 39700 (2023) 107000 39700 61800 67000 86400 141000 160000 255000
2024-06-08 12:00 13.75 87700 255000 (2019) 39700 (2023) 107000 39700 61800 67000 86400 141000 160000 255000
2024-06-08 11:00 13.70 87300 255000 (2019) 39700 (2023) 107000 39700 61800 67000 86400 141000 160000 255000
2024-06-08 10:00 13.63 86700 255000 (2019) 39700 (2023) 107000 39700 61800 67000 86400 141000 160000 255000
2024-06-08 09:00 13.57 86200 255000 (2019) 39700 (2023) 107000 39700 61800 67000 86400 141000 160000 255000
2024-06-08 08:00 13.45 85200 255000 (2019) 39700 (2023) 107000 39700 61800 67000 86400 141000 160000 255000
2024-06-08 07:00 13.34 84300 255000 (2019) 39700 (2023) 107000 39700 61800 67000 86400 141000 160000 255000
2024-06-08 06:00 13.24 83500 255000 (2019) 39700 (2023) 107000 39700 61800 67000 86400 141000 160000 255000
2024-06-08 05:00 13.16 82800 255000 (2019) 39700 (2023) 107000 39700 61800 67000 86400 141000 160000 255000
2024-06-08 04:00 13.11 82400 255000 (2019) 39700 (2023) 107000 39700 61800 67000 86400 141000 160000 255000
2024-06-08 03:00 13.07 82100 255000 (2019) 39700 (2023) 107000 39700 61800 67000 86400 141000 160000 255000
2024-06-08 02:00 13.01 81600 255000 (2019) 39700 (2023) 107000 39700 61800 67000 86400 141000 160000 255000
2024-06-08 01:00 13.01 81600 255000 (2019) 39700 (2023) 107000 39700 61800 67000 86400 141000 160000 255000
2024-06-08 00:00 13.01 81600 255000 (2019) 39700 (2023) 107000 39700 61800 67000 86400 141000 160000 255000
2024-06-07 23:00 13.05 82000 255000 (2019) 39700 (2023) 107000 39700 61800 67000 86400 141000 160000 255000
2024-06-07 22:00 13.10 82400 259000 (2019) 39900 (2023) 115000 39900 63800 68700 90800 172000 216000 259000
2024-06-07 21:00 13.14 82700 259000 (2019) 39900 (2023) 115000 39900 63800 68700 90800 172000 216000 259000
2024-06-07 20:00 13.18 83000 259000 (2019) 39900 (2023) 115000 39900 63800 68700 90800 172000 216000 259000
2024-06-07 19:00 13.21 83300 259000 (2019) 39900 (2023) 115000 39900 63800 68700 90800 172000 216000 259000
2024-06-07 18:00 13.26 83700 259000 (2019) 39900 (2023) 115000 39900 63800 68700 90800 172000 216000 259000
2024-06-07 17:00 13.26 83700 259000 (2019) 39900 (2023) 115000 39900 63800 68700 90800 172000 216000 259000
2024-06-07 16:00 13.32 84100 259000 (2019) 39900 (2023) 115000 39900 63800 68700 90800 172000 216000 259000
2024-06-07 15:00 13.36 84500 259000 (2019) 39900 (2023) 115000 39900 63800 68700 90800 172000 216000 259000
2024-06-07 14:00 13.39 84700 259000 (2019) 39900 (2023) 115000 39900 63800 68700 90800 172000 216000 259000
2024-06-07 13:00 13.44 85100 259000 (2019) 39900 (2023) 115000 39900 63800 68700 90800 172000 216000 259000
2024-06-07 12:00 13.44 85100 259000 (2019) 39900 (2023) 115000 39900 63800 68700 90800 172000 216000 259000
2024-06-07 11:00 13.49 85500 259000 (2019) 39900 (2023) 115000 39900 63800 68700 90800 172000 216000 259000
2024-06-07 10:00 13.51 85700 259000 (2019) 39900 (2023) 115000 39900 63800 68700 90800 172000 216000 259000
2024-06-07 09:00 13.55 86000 259000 (2019) 39900 (2023) 115000 39900 63800 68700 90800 172000 216000 259000
2024-06-07 08:00 13.58 86300 259000 (2019) 39900 (2023) 115000 39900 63800 68700 90800 172000 216000 259000
2024-06-07 07:00 13.60 86500 259000 (2019) 39900 (2023) 115000 39900 63800 68700 90800 172000 216000 259000
2024-06-07 06:00 13.60 86500 259000 (2019) 39900 (2023) 115000 39900 63800 68700 90800 172000 216000 259000
2024-06-07 05:00 13.65 86900 259000 (2019) 39900 (2023) 115000 39900 63800 68700 90800 172000 216000 259000
2024-06-07 04:00 13.67 87000 259000 (2019) 39900 (2023) 115000 39900 63800 68700 90800 172000 216000 259000
2024-06-07 03:00 13.69 87200 259000 (2019) 39900 (2023) 115000 39900 63800 68700 90800 172000 216000 259000
2024-06-07 02:00 13.73 87500 259000 (2019) 39900 (2023) 115000 39900 63800 68700 90800 172000 216000 259000
2024-06-07 01:00 13.76 87800 259000 (2019) 39900 (2023) 115000 39900 63800 68700 90800 172000 216000 259000
2024-06-07 00:00 13.79 88000 259000 (2019) 39900 (2023) 115000 39900 63800 68700 90800 172000 216000 259000
2024-06-06 23:00 13.81 88200 259000 (2019) 39900 (2023) 115000 39900 63800 68700 90800 172000 216000 259000

A total of 192 rows are displayed for years 2015 through 2023.